• Join FlightAware (Why Join?)
  • Login
  • US Flag 
12:12PM EDT


 

Airport Tracker/Info


-or-


 

Live Flight TrackerFlight Track Log ✈ N5205J ✈ 03-Jan-2013 ✈ KBUF - KMMU

Flight Track Log - Related Links

Times and Time Zones

All times are in EST time to prevent confusion due to time zone crossing. See the N5205J flight status page for this flight to view local times or setup timezone preferences in your user account.

Time Position Orientation Groundspeed Altitude Reporting Facility
EST Latitude Longitude Course Direction KTS MPH feet Rate Location/Type
11:42PM 43.0000 -78.9833 117° Southeast 281 323 4,400  Level Buffalo TRACON
11:47PM 42.9642 -78.8861 117° Southeast  Level FlightAware Approximate
11:54PM 42.7955 -78.5127 124° Southeast  Level Estimated
11:55PM 42.7717 -78.4592 121° Southeast  Level FlightAware Approximate
11:56PM 42.7479 -78.4057 121° Southeast  Level FlightAware Approximate
11:57PM 42.7236 -78.3526 125° Southeast  Level Estimated
11:58PM 42.6978 -78.3010 124° Southeast  Level FlightAware Approximate
11:59PM 42.6719 -78.2494 124° Southeast  Level FlightAware Approximate
12:00AM 42.6460 -78.1978 124° Southeast  Level FlightAware Approximate
12:01AM 42.6200 -78.1463 124° Southeast  Level FlightAware Approximate
12:02AM 42.5941 -78.0948 124° Southeast  Level FlightAware Approximate
12:03AM 42.5681 -78.0434 124° Southeast  Level FlightAware Approximate
12:04AM 42.5421 -77.9920 124° Southeast  Level FlightAware Approximate
12:05AM 42.5161 -77.9406 124° Southeast  Level FlightAware Approximate
12:06AM 42.4901 -77.8893 125° Southeast  Level FlightAware Approximate
12:07AM 42.4640 -77.8381 125° Southeast  Level FlightAware Approximate
12:08AM 42.4379 -77.7868 125° Southeast  Level FlightAware Approximate
12:09AM 42.4136 -77.7340 127° Southeast  Level Estimated
12:10AM 42.3865 -77.6839 126° Southeast  Level FlightAware Approximate
12:11AM 42.3593 -77.6337 126° Southeast  Level FlightAware Approximate
12:12AM 42.3322 -77.5836 126° Southeast  Level FlightAware Approximate
12:13AM 42.3050 -77.5336 126° Southeast  Level FlightAware Approximate
12:14AM 42.2777 -77.4836 126° Southeast  Level FlightAware Approximate
12:15AM 42.2536 -77.4308 127° Southeast  Level Estimated
12:16AM 42.2257 -77.3815 127° Southeast  Level FlightAware Approximate
12:17AM 42.1978 -77.3323 127° Southeast  Level FlightAware Approximate
12:18AM 42.1699 -77.2830 127° Southeast  Level FlightAware Approximate
12:19AM 42.1420 -77.2338 127° Southeast  Level FlightAware Approximate
12:20AM 42.1141 -77.1847 127° Southeast  Level FlightAware Approximate
12:21AM 42.0861 -77.1356 127° Southeast  Level FlightAware Approximate
12:22AM 42.0581 -77.0865 128° Southeast  Level FlightAware Approximate
12:23AM 42.0301 -77.0375 128° Southeast  Level FlightAware Approximate
12:24AM 42.0021 -76.9886 128° Southeast  Level FlightAware Approximate
12:25AM 41.9740 -76.9397 128° Southeast  Level FlightAware Approximate
12:26AM 41.9459 -76.8908 128° Southeast  Level FlightAware Approximate
12:27AM 41.9224 -76.8378 126° Southeast  Level Estimated
12:28AM 41.8950 -76.7883 127° Southeast  Level FlightAware Approximate
12:29AM 41.8675 -76.7388 127° Southeast  Level FlightAware Approximate
12:30AM 41.8401 -76.6893 127° Southeast  Level FlightAware Approximate
12:31AM 41.8126 -76.6400 127° Southeast  Level FlightAware Approximate
12:32AM 41.7851 -76.5906 127° Southeast  Level FlightAware Approximate
12:33AM 41.7576 -76.5413 127° Southeast  Level FlightAware Approximate
12:34AM 41.7301 -76.4920 127° Southeast  Level FlightAware Approximate
12:35AM 41.7025 -76.4428 127° Southeast  Level FlightAware Approximate
12:36AM 41.6750 -76.3936 127° Southeast  Level FlightAware Approximate
12:37AM 41.6474 -76.3445 127° Southeast  Level FlightAware Approximate
12:38AM 41.6246 -76.2911 129° Southeast  Level Estimated
12:39AM 41.5958 -76.2433 129° Southeast  Level FlightAware Approximate
12:40AM 41.5669 -76.1956 129° Southeast  Level FlightAware Approximate
12:41AM 41.5380 -76.1479 129° Southeast  Level FlightAware Approximate
12:42AM 41.5091 -76.1002 129° Southeast  Level FlightAware Approximate
12:43AM 41.4870 -76.0464 126° Southeast  Level Estimated
12:44AM 41.4582 -75.9987 129° Southeast  Level FlightAware Approximate
12:45AM 41.4294 -75.9510 129° Southeast  Level FlightAware Approximate
12:46AM 41.4006 -75.9034 129° Southeast  Level FlightAware Approximate
12:47AM 41.3792 -75.8492 111° Southeast  Level Estimated
12:48AM 41.3532 -75.7987 124° Southeast  Level FlightAware Approximate
12:49AM 41.3320 -75.7445 114° Southeast  Level Estimated
12:50AM 41.3110 -75.6901 117° Southeast  Level FlightAware Approximate
12:51AM 41.2899 -75.6358 117° Southeast  Level FlightAware Approximate
12:52AM 41.2688 -75.5816 117° Southeast  Level FlightAware Approximate
12:53AM 41.2477 -75.5273 117° Southeast  Level FlightAware Approximate
12:54AM 41.2265 -75.4731 117° Southeast  Level FlightAware Approximate
12:55AM 41.2053 -75.4189 117° Southeast  Level FlightAware Approximate
12:56AM 41.1841 -75.3648 117° Southeast  Level FlightAware Approximate
12:57AM 41.1629 -75.3107 118° Southeast  Level FlightAware Approximate
12:58AM 41.1413 -75.2568 131° Southeast  Level Estimated
12:59AM 41.1198 -75.2030 106° East  Level Estimated
01:00AM 41.1002 -75.1479 115° Southeast  Level FlightAware Approximate
01:01AM 41.0784 -75.0942 180° South  Level Estimated
01:02AM 41.0566 -75.0406 143° Southeast  Level Estimated
01:03AM 41.0348 -74.9870 123° Southeast  Level Estimated
01:04AM 41.0130 -74.9335 118° Southeast  Level Estimated
01:05AM 40.9916 -74.8796 118° Southeast  Level FlightAware Approximate
01:06AM 40.9702 -74.8258 118° Southeast  Level FlightAware Approximate
01:07AM 40.9482 -74.7724 118° Southeast  Level Estimated
01:08AM 40.9268 -74.7186 118° Southeast  Level FlightAware Approximate
01:09AM 40.9046 -74.6654 128° Southeast  Level Estimated
01:10AM 40.8809 -74.6134 121° Southeast  Level FlightAware Approximate
01:11AM 40.8590 -74.5600 128° Southeast  Level Estimated
01:12AM 40.8371 -74.5066 128° Southeast  Level Estimated
01:13AM 40.8152 -74.4533 128° Southeast  Level Estimated
01:14AM 40.7993 -74.4149 128° Southeast  Level Estimated
01:15AM 40.7993 -74.4149 128° Southeast  Level Estimated
01:16AM 40.7993 -74.4149 128° Southeast  Level Estimated
01:17AM 40.7993 -74.4149 128° Southeast  Level Estimated
01:18AM 40.7993 -74.4149 128° Southeast  Level Estimated
01:19AM 40.7993 -74.4149 128° Southeast  Level Estimated
01:20AM 40.7993 -74.4149 128° Southeast  Level Estimated
01:21AM 40.7993 -74.4149 128° Southeast  Level Estimated
01:22AM 40.7993 -74.4149 128° Southeast  Level Estimated